Time;durP1;ratioP1;P1;durP2;ratioP2;P2;SDS_P1;SDS_P2;PMS_P1;PMS_P2;Temp;Humidity;BMP_temperature;BMP_pressure;BME280_temperature;BME280_humidity;BME280_pressure;Samples;Min_cycle;Max_cycle;Signal;HPM_P1;HPM_P2
2022/07/20 00:01:05;;;;;;;3.30;2.20;;;28.70;35.60;;;;;;4972063;28;20578;-75
2022/07/20 00:03:31;;;;;;;3.10;2.50;;;28.70;35.70;;;;;;4972351;28;20529;-75
2022/07/20 00:05:57;;;;;;;3.23;1.63;;;28.70;35.80;;;;;;4954239;28;20222;-75
2022/07/20 00:11:21;;;;;;;2.87;1.93;;;28.60;35.70;;;;;;4970924;28;20683;-75
2022/07/20 00:13:52;;;;;;;4.13;2.17;;;28.70;35.70;;;;;;4972299;28;20571;-75
2022/07/20 00:16:23;;;;;;;3.00;2.03;;;28.60;36.10;;;;;;4970421;28;20587;-76
2022/07/20 00:18:50;;;;;;;3.33;2.20;;;28.60;36.00;;;;;;4971911;28;20602;-76
2022/07/20 00:21:16;;;;;;;3.43;2.00;;;28.50;36.10;;;;;;4970761;28;20587;-76
2022/07/20 00:23:41;;;;;;;4.53;2.37;;;28.50;36.30;;;;;;4972204;28;20575;-76
2022/07/20 00:26:08;;;;;;;2.77;2.10;;;28.50;36.20;;;;;;4971614;28;20722;-75
2022/07/20 00:28:33;;;;;;;4.50;2.10;;;28.50;36.30;;;;;;4972074;28;20203;-76
2022/07/20 00:30:59;;;;;;;2.63;2.07;;;28.50;36.40;;;;;;4975045;28;20581;-76
2022/07/20 00:33:25;;;;;;;3.13;1.90;;;28.50;36.40;;;;;;4974258;28;20655;-75
2022/07/20 00:35:51;;;;;;;3.63;1.87;;;28.40;36.40;;;;;;4975052;28;20175;-76
2022/07/20 00:38:16;;;;;;;3.30;2.00;;;28.40;36.60;;;;;;4975223;28;20187;-75
2022/07/20 00:40:42;;;;;;;2.53;2.00;;;28.40;36.70;;;;;;4975180;28;20176;-75
2022/07/20 00:43:08;;;;;;;3.00;2.10;;;28.40;36.80;;;;;;4974303;28;20171;-75
2022/07/20 00:45:34;;;;;;;3.30;1.80;;;28.40;36.90;;;;;;4975057;28;20509;-75
2022/07/20 00:48:00;;;;;;;4.10;2.70;;;28.30;37.00;;;;;;4974817;28;20772;-75
2022/07/20 00:50:26;;;;;;;3.53;2.20;;;28.30;37.20;;;;;;4973545;28;20552;-75
2022/07/20 00:52:52;;;;;;;2.27;1.80;;;28.30;37.00;;;;;;4975323;28;20579;-75
2022/07/20 00:55:18;;;;;;;2.73;1.80;;;28.30;37.00;;;;;;4974652;28;20529;-75
2022/07/20 00:57:44;;;;;;;2.73;1.87;;;28.20;37.00;;;;;;4974962;28;20618;-75
2022/07/20 01:00:12;;;;;;;3.50;1.37;;;28.20;37.00;;;;;;4974567;28;20980;-75
2022/07/20 01:02:39;;;;;;;3.57;1.60;;;28.20;37.10;;;;;;4973620;28;20193;-75
2022/07/20 01:05:14;;;;;;;1.80;1.50;;;28.20;37.20;;;;;;4973213;28;20943;-75
2022/07/20 01:07:49;;;;;;;3.50;2.10;;;28.10;38.00;;;;;;4974772;28;20621;-75
2022/07/20 01:10:16;;;;;;;5.23;1.73;;;28.00;37.50;;;;;;4974556;28;20604;-75
2022/07/20 01:12:51;;;;;;;2.57;2.03;;;28.00;37.70;;;;;;4974812;28;20574;-75
2022/07/20 01:15:17;;;;;;;3.10;2.00;;;28.00;37.70;;;;;;4973105;28;20574;-75
2022/07/20 01:17:43;;;;;;;3.37;2.03;;;28.00;37.70;;;;;;4974733;28;20571;-75
2022/07/20 01:20:18;;;;;;;4.07;2.07;;;27.90;37.90;;;;;;4974496;28;20625;-75
2022/07/20 01:22:46;;;;;;;2.07;1.60;;;27.90;38.60;;;;;;4957837;28;20575;-76
2022/07/20 01:25:12;;;;;;;2.57;2.00;;;27.90;37.90;;;;;;4974246;28;20563;-76
2022/07/20 01:27:38;;;;;;;3.50;2.20;;;27.90;37.90;;;;;;4976074;28;21548;-76
2022/07/20 01:30:05;;;;;;;5.33;2.00;;;27.90;38.00;;;;;;4977582;28;20622;-75
2022/07/20 01:32:30;;;;;;;3.80;2.30;;;27.90;38.00;;;;;;4975424;28;20218;-75
2022/07/20 01:34:56;;;;;;;3.07;2.20;;;27.90;38.20;;;;;;4974945;28;21174;-75
2022/07/20 01:37:22;;;;;;;4.00;1.60;;;27.90;38.10;;;;;;4975358;28;20179;-75
2022/07/20 01:39:47;;;;;;;3.60;1.60;;;27.90;38.40;;;;;;4974583;28;20288;-76
2022/07/20 01:42:13;;;;;;;4.70;2.97;;;27.90;38.60;;;;;;4973547;28;20175;-76
2022/07/20 01:44:39;;;;;;;4.37;1.80;;;27.80;38.50;;;;;;4972888;28;20172;-77
2022/07/20 01:47:05;;;;;;;3.47;1.83;;;27.80;38.40;;;;;;4974570;28;20734;-77
2022/07/20 01:49:30;;;;;;;3.07;1.80;;;27.80;38.30;;;;;;4973414;28;20196;-77
2022/07/20 01:51:56;;;;;;;5.10;2.23;;;27.80;38.30;;;;;;4972914;28;20519;-76
2022/07/20 01:54:22;;;;;;;3.07;1.77;;;27.80;38.30;;;;;;4973693;28;20156;-77
2022/07/20 01:56:48;;;;;;;6.90;1.93;;;27.80;38.50;;;;;;4973032;28;20180;-77
2022/07/20 01:59:14;;;;;;;3.60;1.50;;;27.80;38.50;;;;;;4973894;28;20196;-77
2022/07/20 02:01:39;;;;;;;3.03;1.87;;;27.70;39.00;;;;;;4973630;28;20179;-77
2022/07/20 02:04:06;;;;;;;3.33;1.70;;;27.70;38.70;;;;;;4974378;28;20214;-77
2022/07/20 02:06:31;;;;;;;5.27;2.50;;;27.70;38.90;;;;;;4973737;28;20212;-77
2022/07/20 02:08:57;;;;;;;3.13;2.00;;;27.60;39.50;;;;;;4973901;28;20591;-76
2022/07/20 02:11:23;;;;;;;4.63;2.43;;;27.60;39.00;;;;;;4973524;28;20172;-77
2022/07/20 02:13:49;;;;;;;3.87;2.13;;;27.60;39.10;;;;;;4972623;28;20163;-77
2022/07/20 02:16:15;;;;;;;5.53;2.03;;;27.60;39.20;;;;;;4972985;28;20571;-77
2022/07/20 02:18:48;;;;;;;3.50;2.10;;;27.50;39.10;;;;;;4973447;28;20188;-76
2022/07/20 02:21:15;;;;;;;3.73;1.90;;;27.50;39.10;;;;;;4973315;28;20203;-77
2022/07/20 02:23:41;;;;;;;4.70;1.93;;;27.50;39.00;;;;;;4973461;28;20575;-76
2022/07/20 02:26:07;;;;;;;2.43;1.70;;;27.40;39.30;;;;;;4972884;28;20681;-77
2022/07/20 02:28:33;;;;;;;3.30;2.03;;;27.40;39.30;;;;;;4973330;28;21020;-77
2022/07/20 02:30:59;;;;;;;2.07;1.60;;;27.40;39.50;;;;;;4972919;28;20654;-77
2022/07/20 02:33:25;;;;;;;2.17;1.67;;;27.30;39.50;;;;;;4973333;28;20674;-76
2022/07/20 02:35:51;;;;;;;4.07;2.33;;;27.30;39.50;;;;;;4973098;28;20180;-76
2022/07/20 02:38:17;;;;;;;4.13;2.37;;;27.30;39.50;;;;;;4971951;28;20205;-76
2022/07/20 02:40:42;;;;;;;5.00;2.67;;;27.20;39.50;;;;;;4972858;28;20171;-75
2022/07/20 02:43:08;;;;;;;5.60;2.17;;;27.20;39.70;;;;;;4971726;28;20686;-76
2022/07/20 02:45:34;;;;;;;4.43;2.43;;;27.20;39.60;;;;;;4955121;28;20183;-76
2022/07/20 02:48:03;;;;;;;2.40;2.13;;;27.20;39.70;;;;;;4973004;28;20617;-76
2022/07/20 02:50:30;;;;;;;5.93;2.20;;;27.20;39.70;;;;;;4972623;28;20591;-76
2022/07/20 02:52:56;;;;;;;3.13;1.90;;;27.20;39.70;;;;;;4972788;28;20972;-76
2022/07/20 02:55:22;;;;;;;4.73;1.90;;;27.20;39.90;;;;;;4972606;28;20662;-76
2022/07/20 02:57:48;;;;;;;2.67;2.30;;;27.20;39.90;;;;;;4972304;28;20176;-76
2022/07/20 03:00:14;;;;;;;6.20;2.53;;;27.20;39.90;;;;;;4972576;28;20192;-76
2022/07/20 03:02:40;;;;;;;3.50;2.13;;;27.20;40.10;;;;;;4971823;28;20214;-76
2022/07/20 03:05:06;;;;;;;4.03;2.47;;;27.20;40.20;;;;;;4972522;28;20579;-76
2022/07/20 03:07:32;;;;;;;2.57;2.10;;;27.20;40.50;;;;;;4972758;28;20669;-76
2022/07/20 03:09:58;;;;;;;3.73;2.03;;;27.20;40.40;;;;;;4972392;28;20606;-76
2022/07/20 03:12:24;;;;;;;4.80;1.63;;;27.30;40.30;;;;;;4972655;28;20928;-75
2022/07/20 03:14:50;;;;;;;3.03;1.77;;;27.30;40.30;;;;;;4972505;28;20179;-76
2022/07/20 03:17:16;;;;;;;2.33;2.13;;;27.30;40.10;;;;;;4972823;28;20527;-76
2022/07/20 03:19:43;;;;;;;2.10;1.80;;;27.30;40.00;;;;;;4971247;28;20609;-76
2022/07/20 03:22:09;;;;;;;2.60;1.90;;;27.30;40.00;;;;;;4972858;28;20559;-75
2022/07/20 03:24:34;;;;;;;3.07;2.30;;;27.30;40.20;;;;;;4972153;28;20567;-75
2022/07/20 03:27:00;;;;;;;2.40;1.97;;;27.20;40.30;;;;;;4972354;28;20199;-75
2022/07/20 03:29:26;;;;;;;2.50;2.00;;;27.20;40.20;;;;;;4972599;28;20188;-75
2022/07/20 03:31:52;;;;;;;4.20;2.30;;;27.20;40.10;;;;;;4972140;28;20574;-75
2022/07/20 03:34:18;;;;;;;3.70;2.13;;;27.10;40.50;;;;;;4971950;28;20606;-75
2022/07/20 03:36:44;;;;;;;2.27;1.93;;;27.10;40.30;;;;;;4971163;28;21107;-75
2022/07/20 03:39:10;;;;;;;3.60;2.40;;;27.10;40.50;;;;;;4972285;28;20717;-76
2022/07/20 03:41:35;;;;;;;4.13;2.50;;;27.10;40.50;;;;;;4971936;28;20182;-76
2022/07/20 03:44:01;;;;;;;3.50;1.93;;;27.00;40.70;;;;;;4972014;28;20175;-76
2022/07/20 03:46:27;;;;;;;4.60;2.20;;;27.00;40.70;;;;;;4972524;28;20302;-76
2022/07/20 03:48:53;;;;;;;5.37;2.30;;;26.90;40.80;;;;;;4972450;28;20552;-76
2022/07/20 03:51:19;;;;;;;4.67;1.93;;;26.80;40.80;;;;;;4972212;28;20521;-75
2022/07/20 03:53:46;;;;;;;4.10;2.17;;;26.80;41.00;;;;;;4972525;28;20168;-75
2022/07/20 03:56:12;;;;;;;3.87;2.17;;;26.70;41.00;;;;;;4973287;28;20571;-75
2022/07/20 03:58:38;;;;;;;5.13;1.77;;;26.70;41.10;;;;;;4972660;28;20614;-73
2022/07/20 04:01:03;;;;;;;2.50;1.83;;;26.60;41.10;;;;;;4971918;28;20575;-73
2022/07/20 04:03:29;;;;;;;4.83;2.93;;;26.60;41.30;;;;;;4972520;28;20163;-73
2022/07/20 04:05:55;;;;;;;3.50;2.43;;;26.50;41.50;;;;;;4975683;28;20223;-73
2022/07/20 04:08:21;;;;;;;2.90;2.30;;;26.50;41.60;;;;;;4975851;28;20227;-73
2022/07/20 04:10:46;;;;;;;4.60;1.80;;;26.40;41.60;;;;;;4975418;28;20190;-73
2022/07/20 04:13:12;;;;;;;5.50;1.90;;;26.40;41.90;;;;;;4976109;28;20168;-73
2022/07/20 04:15:38;;;;;;;6.23;2.30;;;26.30;41.90;;;;;;4975661;28;20167;-73
2022/07/20 04:18:04;;;;;;;6.70;2.67;;;26.30;42.10;;;;;;4975805;28;20223;-73
2022/07/20 04:20:29;;;;;;;2.90;2.40;;;26.20;42.10;;;;;;4975604;28;20196;-73
2022/07/20 04:22:55;;;;;;;5.73;2.70;;;26.20;42.40;;;;;;4975781;28;20172;-73
2022/07/20 04:25:22;;;;;;;4.10;2.53;;;26.10;43.00;;;;;;4975189;28;20167;-73
2022/07/20 04:27:50;;;;;;;5.20;1.90;;;26.10;42.60;;;;;;4975562;28;20607;-73
2022/07/20 04:30:16;;;;;;;5.57;2.37;;;26.10;42.70;;;;;;4975211;28;20741;-73
2022/07/20 04:32:42;;;;;;;3.93;2.23;;;26.00;42.70;;;;;;4975601;28;20574;-73
2022/07/20 04:35:09;;;;;;;6.10;2.70;;;26.10;42.80;;;;;;4975123;28;20566;-73
2022/07/20 04:37:35;;;;;;;5.70;2.20;;;26.10;43.00;;;;;;4974865;28;21153;-73
2022/07/20 04:40:02;;;;;;;3.90;2.07;;;26.10;43.10;;;;;;4974622;28;21014;-73
2022/07/20 04:42:28;;;;;;;5.13;2.83;;;26.10;43.20;;;;;;4975275;28;20578;-73
2022/07/20 04:44:54;;;;;;;3.37;2.10;;;26.10;43.20;;;;;;4974184;28;20567;-73
2022/07/20 04:47:20;;;;;;;4.13;2.60;;;26.10;43.30;;;;;;4973083;28;20261;-73
2022/07/20 04:49:46;;;;;;;5.63;3.00;;;26.10;43.30;;;;;;4973811;28;20191;-73
2022/07/20 04:52:11;;;;;;;5.63;2.83;;;26.20;43.40;;;;;;4974077;28;20176;-73
2022/07/20 04:54:37;;;;;;;3.63;2.43;;;26.20;43.50;;;;;;4973995;28;20222;-73
2022/07/20 04:57:03;;;;;;;3.67;2.70;;;26.20;43.60;;;;;;4972848;28;20171;-73
2022/07/20 04:59:29;;;;;;;3.30;2.50;;;26.30;43.60;;;;;;4973747;28;20195;-73
2022/07/20 05:01:55;;;;;;;5.07;2.77;;;26.40;43.80;;;;;;4975349;28;20238;-73
2022/07/20 05:04:20;;;;;;;7.70;2.53;;;26.50;43.90;;;;;;4975071;28;20575;-73
2022/07/20 05:06:46;;;;;;;5.47;3.23;;;26.60;43.80;;;;;;4975000;28;20647;-73
2022/07/20 05:09:12;;;;;;;3.53;2.67;;;26.80;43.80;;;;;;4975054;28;20600;-73
2022/07/20 05:11:39;;;;;;;4.33;2.60;;;26.90;43.70;;;;;;4975065;28;20172;-73
2022/07/20 05:14:05;;;;;;;6.97;4.37;;;26.90;43.60;;;;;;4974657;28;20175;-73
2022/07/20 05:16:31;;;;;;;11.03;3.60;;;27.00;43.70;;;;;;4974767;28;20575;-73
2022/07/20 05:18:56;;;;;;;4.87;4.30;;;27.00;43.70;;;;;;4974784;28;20662;-73
2022/07/20 05:21:22;;;;;;;5.53;4.27;;;27.10;43.80;;;;;;4974897;28;20638;-73
2022/07/20 05:23:48;;;;;;;7.50;4.57;;;27.10;43.90;;;;;;4974776;28;20214;-72
2022/07/20 05:26:14;;;;;;;7.20;4.30;;;27.10;44.00;;;;;;4974622;28;20176;-74
2022/07/20 05:28:41;;;;;;;11.57;5.20;;;27.20;44.10;;;;;;4974703;28;20199;-74
2022/07/20 05:31:08;;;;;;;10.77;5.23;;;27.20;44.20;;;;;;4974607;28;20528;-74
2022/07/20 05:33:35;;;;;;;8.23;5.63;;;27.30;44.30;;;;;;4974732;28;20590;-74
2022/07/20 05:36:02;;;;;;;7.43;5.40;;;27.30;44.50;;;;;;4974475;28;20599;-74
2022/07/20 05:38:29;;;;;;;16.10;5.87;;;27.40;44.70;;;;;;4974432;28;20744;-74
2022/07/20 05:40:55;;;;;;;10.07;6.77;;;27.50;44.80;;;;;;4974376;28;20603;-74
2022/07/20 05:43:22;;;;;;;7.10;6.33;;;27.50;44.90;;;;;;4974293;28;20603;-74
2022/07/20 05:45:47;;;;;;;8.23;7.20;;;27.50;45.10;;;;;;4974196;28;20203;-74
2022/07/20 05:48:14;;;;;;;8.47;6.60;;;27.60;45.20;;;;;;4975198;28;20626;-74
2022/07/20 05:50:41;;;;;;;8.37;6.60;;;27.70;45.30;;;;;;4974077;28;20992;-74
2022/07/20 05:53:08;;;;;;;10.63;7.87;;;27.70;45.50;;;;;;4974450;28;20578;-74
2022/07/20 05:55:34;;;;;;;10.23;8.63;;;27.90;45.80;;;;;;4974213;28;20563;-75
2022/07/20 05:58:01;;;;;;;10.77;9.63;;;28.10;46.50;;;;;;4974102;28;20571;-75
2022/07/20 06:00:27;;;;;;;11.80;9.27;;;28.30;46.70;;;;;;4972191;28;20614;-75
2022/07/20 06:02:52;;;;;;;10.40;9.30;;;28.70;46.90;;;;;;4993485;28;20586;-75
2022/07/20 06:05:18;;;;;;;13.27;10.27;;;29.20;47.20;;;;;;4973512;28;20252;-75
2022/07/20 06:07:44;;;;;;;11.03;8.90;;;29.90;47.50;;;;;;4973113;28;20203;-75
2022/07/20 06:10:11;;;;;;;15.30;11.77;;;30.70;47.60;;;;;;4972940;28;20673;-75
2022/07/20 06:12:37;;;;;;;15.20;11.67;;;31.50;47.30;;;;;;4973372;28;21151;-75
2022/07/20 06:15:04;;;;;;;15.73;11.60;;;32.40;46.90;;;;;;4972923;28;20637;-75
2022/07/20 06:17:37;;;;;;;12.73;11.37;;;33.20;46.30;;;;;;4973573;28;20680;-75
2022/07/20 06:20:09;;;;;;;12.80;11.13;;;33.90;45.60;;;;;;4972845;28;20609;-76
2022/07/20 06:22:39;;;;;;;11.80;10.60;;;34.70;45.00;;;;;;4973537;28;20584;-75
2022/07/20 06:25:06;;;;;;;12.33;11.23;;;35.50;44.40;;;;;;4972725;28;20581;-76
2022/07/20 06:27:32;;;;;;;13.23;12.07;;;36.10;43.70;;;;;;4972648;28;20613;-76
2022/07/20 06:29:58;;;;;;;13.73;11.20;;;36.60;43.00;;;;;;4972770;28;20617;-76
2022/07/20 06:32:24;;;;;;;13.13;11.83;;;37.10;42.30;;;;;;4973110;28;20563;-75
2022/07/20 06:34:51;;;;;;;12.43;11.20;;;37.50;41.80;;;;;;4973369;28;20570;-78
2022/07/20 06:37:16;;;;;;;13.13;12.03;;;37.90;41.50;;;;;;4975020;28;20575;-78
2022/07/20 06:39:42;;;;;;;12.27;11.13;;;38.30;41.20;;;;;;4974617;28;20630;-78
2022/07/20 06:42:08;;;;;;;15.07;12.73;;;38.60;40.80;;;;;;4973638;28;20175;-78
2022/07/20 06:44:38;;;;;;;13.53;12.27;;;38.90;40.40;;;;;;4973710;28;20176;-78
2022/07/20 06:47:04;;;;;;;13.33;12.10;;;39.10;40.00;;;;;;4956459;28;20729;-78
2022/07/20 06:49:31;;;;;;;13.03;12.03;;;39.40;39.60;;;;;;4972199;28;20633;-78
2022/07/20 06:51:57;;;;;;;13.23;11.90;;;39.60;39.30;;;;;;4974435;28;20571;-79
2022/07/20 06:54:23;;;;;;;13.10;12.10;;;39.70;38.80;;;;;;4973623;28;20587;-78
2022/07/20 06:56:49;;;;;;;12.40;11.50;;;39.50;38.30;;;;;;4974644;28;20568;-79
2022/07/20 06:59:14;;;;;;;13.40;12.30;;;39.50;38.20;;;;;;4973471;28;20672;-79
2022/07/20 07:01:40;;;;;;;14.20;13.00;;;39.40;38.00;;;;;;4974870;28;20172;-79
2022/07/20 07:04:06;;;;;;;14.17;12.87;;;39.10;37.60;;;;;;4974246;28;20214;-78
2022/07/20 07:06:32;;;;;;;13.27;11.97;;;38.70;37.50;;;;;;4972628;28;20230;-79
2022/07/20 07:08:59;;;;;;;13.03;11.80;;;38.40;37.70;;;;;;4974429;28;20199;-78
2022/07/20 07:11:25;;;;;;;12.97;11.87;;;38.10;38.00;;;;;;4973776;28;20931;-78
2022/07/20 07:13:52;;;;;;;14.73;13.13;;;37.90;38.20;;;;;;4974951;28;20564;-79
2022/07/20 07:16:17;;;;;;;14.03;12.60;;;37.90;38.60;;;;;;4975748;28;20563;-78
2022/07/20 07:18:43;;;;;;;13.80;11.70;;;37.80;38.60;;;;;;4974647;28;21228;-78
2022/07/20 07:21:09;;;;;;;13.87;12.70;;;37.90;38.80;;;;;;4974486;28;20582;-78
2022/07/20 07:23:35;;;;;;;11.97;10.77;;;38.10;39.00;;;;;;4973276;28;20566;-78
2022/07/20 07:26:01;;;;;;;14.83;13.37;;;38.30;39.00;;;;;;4973718;28;21099;-78
2022/07/20 07:28:27;;;;;;;14.13;11.63;;;38.50;38.70;;;;;;4972763;28;20623;-78
2022/07/20 07:30:53;;;;;;;13.57;11.27;;;38.90;38.80;;;;;;4973124;28;20934;-78
2022/07/20 07:33:25;;;;;;;11.47;10.20;;;39.30;38.70;;;;;;4973114;28;20175;-78
2022/07/20 07:35:52;;;;;;;17.00;11.30;;;39.60;38.40;;;;;;4973591;28;20174;-78
2022/07/20 07:38:18;;;;;;;14.10;11.70;;;39.70;37.60;;;;;;4973728;28;20580;-78
2022/07/20 07:40:44;;;;;;;11.43;10.20;;;39.80;37.40;;;;;;4975316;28;20606;-78
2022/07/20 07:43:09;;;;;;;13.70;12.40;;;39.70;37.10;;;;;;4992171;28;20559;-78
2022/07/20 07:45:35;;;;;;;11.10;10.00;;;39.40;36.70;;;;;;4993686;28;20206;-78
2022/07/20 07:48:01;;;;;;;14.73;11.47;;;39.00;36.70;;;;;;4995833;28;20203;-78
2022/07/20 07:50:27;;;;;;;12.33;11.13;;;38.90;37.10;;;;;;4979896;28;20610;-78
2022/07/20 07:52:53;;;;;;;14.73;11.80;;;38.80;37.10;;;;;;4977906;28;20508;-78
2022/07/20 07:55:19;;;;;;;13.87;11.47;;;38.60;37.30;;;;;;4975694;28;20225;-78
2022/07/20 07:57:44;;;;;;;11.53;10.43;;;38.60;37.50;;;;;;4976602;28;20183;-79
2022/07/20 08:00:10;;;;;;;14.03;11.63;;;38.60;37.50;;;;;;4976628;28;20949;-78
2022/07/20 08:02:39;;;;;;;11.30;10.33;;;38.50;37.40;;;;;;4975866;28;20203;-79
2022/07/20 08:05:05;;;;;;;12.13;10.93;;;38.20;37.30;;;;;;4975675;28;20567;-78
2022/07/20 08:07:33;;;;;;;10.87;9.87;;;38.00;37.40;;;;;;4976457;28;20613;-78
2022/07/20 08:10:00;;;;;;;11.47;10.47;;;37.70;37.40;;;;;;4975901;28;20598;-78
2022/07/20 08:12:26;;;;;;;11.23;10.23;;;37.50;37.70;;;;;;4974690;28;20670;-78
2022/07/20 08:14:52;;;;;;;10.10;9.30;;;37.40;38.10;;;;;;4974221;28;20662;-78
2022/07/20 08:17:19;;;;;;;15.77;11.60;;;37.40;38.60;;;;;;4975533;28;20171;-78
2022/07/20 08:19:45;;;;;;;15.23;11.57;;;37.60;38.80;;;;;;4975475;28;20272;-78
2022/07/20 08:22:11;;;;;;;11.20;9.90;;;37.90;39.00;;;;;;4967622;28;20607;-78
2022/07/20 08:24:36;;;;;;;13.73;10.70;;;38.30;39.10;;;;;;4956603;28;20596;-78
2022/07/20 08:27:03;;;;;;;11.27;10.30;;;38.70;38.80;;;;;;4974880;28;20626;-78
2022/07/20 08:29:29;;;;;;;10.30;9.33;;;39.10;38.40;;;;;;4975909;28;20191;-78
2022/07/20 08:31:54;;;;;;;11.40;10.40;;;39.50;38.50;;;;;;4975056;28;20674;-78
2022/07/20 08:34:20;;;;;;;11.97;9.87;;;39.80;37.80;;;;;;4973775;28;20542;-79
2022/07/20 08:36:46;;;;;;;10.33;9.43;;;39.90;37.30;;;;;;4974827;28;20171;-78
2022/07/20 08:39:12;;;;;;;11.17;9.70;;;39.90;37.20;;;;;;4974494;28;20210;-78
2022/07/20 08:41:39;;;;;;;13.37;9.80;;;40.00;37.00;;;;;;4989998;28;20171;-79
2022/07/20 08:44:04;;;;;;;11.20;10.17;;;39.90;36.50;;;;;;4974562;28;20218;-79
2022/07/20 08:46:32;;;;;;;11.57;10.43;;;39.70;36.40;;;;;;4974822;28;20665;-78
2022/07/20 08:48:59;;;;;;;11.13;9.90;;;39.50;36.30;;;;;;4975180;28;20196;-78
2022/07/20 08:51:25;;;;;;;14.40;11.20;;;39.10;36.30;;;;;;4974659;28;20578;-78
2022/07/20 08:53:52;;;;;;;12.60;11.40;;;38.80;36.30;;;;;;4975960;28;20559;-79
2022/07/20 08:56:18;;;;;;;11.80;10.60;;;38.40;36.30;;;;;;4977881;28;20167;-79
2022/07/20 08:58:43;;;;;;;12.80;10.67;;;37.90;36.60;;;;;;4984359;28;20620;-79
2022/07/20 09:01:17;;;;;;;11.93;10.87;;;37.50;36.90;;;;;;4988925;28;20200;-79
2022/07/20 09:04:12;;;;;;;12.40;11.30;;;37.30;37.60;;;;;;4994010;28;20196;-78
2022/07/20 09:06:56;;;;;;;13.07;10.80;;;37.20;38.20;;;;;;5015261;28;20637;-78
2022/07/20 09:09:23;;;;;;;11.40;10.30;;;37.30;39.00;;;;;;5007245;28;20609;-79
2022/07/20 09:11:50;;;;;;;12.53;10.33;;;37.80;39.40;;;;;;5005193;28;20567;-77
2022/07/20 09:14:35;;;;;;;12.70;11.40;;;38.20;39.20;;;;;;5003662;28;20673;-79
2022/07/20 09:17:21;;;;;;;11.43;10.23;;;38.80;38.80;;;;;;5000071;28;20636;-78
2022/07/20 09:20:13;;;;;;;13.00;11.20;;;39.40;39.10;;;;;;4993670;28;20605;-79
2022/07/20 09:22:39;;;;;;;14.10;12.70;;;40.20;38.60;;;;;;4990923;28;20606;-79
2022/07/20 09:25:08;;;;;;;10.83;10.00;;;40.80;38.40;;;;;;4994734;28;20636;-79
2022/07/20 09:27:34;;;;;;;11.37;10.27;;;41.40;38.10;;;;;;4994918;28;20620;-78
2022/07/20 09:30:12;;;;;;;10.63;9.70;;;41.90;37.20;;;;;;4994768;28;20598;-78
2022/07/20 09:33:01;;;;;;;16.10;11.13;;;42.30;36.10;;;;;;4976468;28;21228;-78
2022/07/20 09:35:33;;;;;;;11.70;10.70;;;42.80;35.80;;;;;;4993359;28;20566;-78
2022/07/20 09:38:03;;;;;;;10.07;9.17;;;43.10;35.10;;;;;;4978022;28;20596;-79
2022/07/20 09:40:39;;;;;;;9.87;9.07;;;43.40;34.60;;;;;;4990412;28;20657;-79
2022/07/20 09:43:05;;;;;;;8.63;7.80;;;43.50;33.60;;;;;;4978592;28;20571;-79
2022/07/20 09:45:32;;;;;;;8.47;7.60;;;43.30;33.00;;;;;;4974241;28;20613;-79
2022/07/20 09:48:03;;;;;;;7.10;6.40;;;43.10;33.00;;;;;;4981089;28;20203;-78
2022/07/20 09:50:32;;;;;;;8.50;7.80;;;43.10;33.00;;;;;;4985714;28;20606;-76
2022/07/20 09:52:58;;;;;;;9.77;8.77;;;43.10;33.40;;;;;;4991746;28;20990;-78
2022/07/20 09:55:27;;;;;;;10.97;10.07;;;43.10;33.30;;;;;;4992800;28;20705;-77
2022/07/20 09:57:54;;;;;;;11.17;10.17;;;43.30;33.20;;;;;;4992719;28;20636;-78
2022/07/20 10:00:20;;;;;;;9.60;8.70;;;43.30;33.00;;;;;;4985636;28;20644;-78
2022/07/20 10:02:48;;;;;;;9.50;8.70;;;43.30;33.00;;;;;;4972675;28;20972;-77
2022/07/20 10:05:16;;;;;;;9.57;8.77;;;43.30;33.00;;;;;;4972855;28;20599;-77
2022/07/20 10:07:44;;;;;;;9.47;8.67;;;43.40;33.70;;;;;;4972891;28;20802;-77
2022/07/20 10:10:10;;;;;;;10.30;9.23;;;43.40;33.10;;;;;;4972306;28;20591;-77
2022/07/20 10:12:36;;;;;;;9.70;8.80;;;43.50;32.90;;;;;;4970171;28;20583;-77
2022/07/20 10:15:08;;;;;;;10.50;9.50;;;43.30;32.40;;;;;;4972555;28;20568;-76
2022/07/20 10:17:36;;;;;;;9.47;8.50;;;42.80;32.20;;;;;;4976999;28;20574;-76
2022/07/20 10:20:02;;;;;;;10.33;9.17;;;42.50;32.50;;;;;;4971306;28;21047;-77
2022/07/20 10:22:35;;;;;;;11.00;10.03;;;42.20;32.80;;;;;;5091392;22;20769;-83
2022/07/20 10:25:16;;;;;;;10.90;9.70;;;42.10;33.00;;;;;;5062839;28;21169;-84
2022/07/20 10:27:42;;;;;;;10.70;8.97;;;41.70;33.00;;;;;;5066484;28;20222;-84
2022/07/20 10:30:19;;;;;;;11.40;8.90;;;41.20;33.00;;;;;;5061487;28;20591;-84
2022/07/20 10:32:56;;;;;;;10.40;9.40;;;40.70;33.60;;;;;;5061684;28;20258;-84
2022/07/20 10:35:30;;;;;;;11.03;10.00;;;40.50;34.10;;;;;;5042311;28;20587;-84
2022/07/20 10:37:57;;;;;;;10.60;9.57;;;40.50;34.60;;;;;;5060754;28;20609;-84
2022/07/20 10:40:28;;;;;;;9.27;8.47;;;40.60;35.10;;;;;;5067414;28;20563;-82
2022/07/20 10:43:16;;;;;;;9.73;8.73;;;40.70;35.20;;;;;;5046290;28;21205;-83
2022/07/20 10:45:43;;;;;;;9.43;8.63;;;40.90;35.50;;;;;;5050742;28;21014;-81
2022/07/20 10:48:11;;;;;;;10.43;9.50;;;41.20;35.50;;;;;;5049700;28;20586;-82
2022/07/20 10:50:41;;;;;;;11.00;10.03;;;41.40;35.30;;;;;;5048524;28;20678;-82
2022/07/20 10:53:10;;;;;;;9.80;8.90;;;41.50;34.90;;;;;;5048567;28;20611;-81
2022/07/20 10:55:36;;;;;;;10.73;9.67;;;41.60;35.70;;;;;;5047256;28;20606;-81
2022/07/20 10:58:05;;;;;;;10.73;9.67;;;41.70;35.50;;;;;;5041035;28;20577;-81
2022/07/20 11:00:34;;;;;;;9.50;8.70;;;41.80;35.20;;;;;;5029368;28;20201;-81
2022/07/20 11:03:02;;;;;;;13.57;9.73;;;42.00;35.30;;;;;;5030130;28;20600;-81
2022/07/20 11:05:27;;;;;;;9.87;9.00;;;42.20;35.00;;;;;;5036106;28;20592;-81
2022/07/20 11:07:53;;;;;;;9.43;8.53;;;42.30;34.80;;;;;;5030855;28;21356;-83
2022/07/20 11:10:25;;;;;;;10.50;8.40;;;42.50;34.70;;;;;;5032716;28;20176;-82
2022/07/20 11:12:59;;;;;;;9.15;8.23;;;42.70;34.70;;;;;;5031174;28;20718;-80
2022/07/20 11:15:38;;;;;;;10.20;8.17;;;42.80;33.90;;;;;;5047680;28;20260;-81
2022/07/20 11:18:06;;;;;;;8.27;7.30;;;42.80;33.90;;;;;;5029146;28;20669;-83
2022/07/20 11:20:32;;;;;;;8.00;7.20;;;42.80;33.80;;;;;;5047116;28;20627;-82
2022/07/20 11:22:58;;;;;;;8.33;7.50;;;42.90;33.70;;;;;;5048381;28;21248;-83
2022/07/20 11:25:24;;;;;;;8.23;7.43;;;42.90;33.80;;;;;;5040589;28;20178;-83
2022/07/20 11:28:03;;;;;;;10.57;7.30;;;42.90;33.60;;;;;;5029949;28;20719;-83
2022/07/20 11:30:34;;;;;;;12.53;7.50;;;42.90;32.80;;;;;;5029699;28;20184;-83
2022/07/20 11:33:00;;;;;;;7.30;6.70;;;42.70;32.30;;;;;;5022401;28;20628;-79
2022/07/20 11:35:26;;;;;;;8.10;6.30;;;42.50;32.30;;;;;;5021748;28;20600;-74
2022/07/20 11:37:53;;;;;;;11.00;6.93;;;42.30;32.30;;;;;;5042439;28;20741;-75
2022/07/20 11:40:20;;;;;;;8.57;6.43;;;42.20;32.40;;;;;;5016506;28;20579;-75
2022/07/20 11:43:11;;;;;;;6.87;6.10;;;42.00;32.50;;;;;;5040746;28;20710;-76
2022/07/20 11:45:37;;;;;;;6.30;5.67;;;41.80;32.50;;;;;;5041468;28;20575;-76
2022/07/20 11:48:21;;;;;;;7.40;6.63;;;41.70;32.80;;;;;;5040912;28;20580;-75
2022/07/20 11:50:46;;;;;;;7.57;6.10;;;41.50;32.90;;;;;;5036388;28;21173;-76
2022/07/20 11:53:26;;;;;;;7.90;5.87;;;41.50;33.50;;;;;;5036548;28;20639;-75
2022/07/20 11:55:53;;;;;;;6.60;5.90;;;41.50;33.30;;;;;;5034184;28;20181;-74
2022/07/20 11:58:34;;;;;;;7.17;6.20;;;41.40;34.00;;;;;;5033974;28;20560;-74
2022/07/20 12:01:02;;;;;;;5.40;4.90;;;41.30;33.00;;;;;;5034611;28;20649;-75
2022/07/20 12:03:31;;;;;;;6.30;5.17;;;41.20;33.00;;;;;;5033716;28;21370;-77
2022/07/20 12:06:04;;;;;;;8.97;4.63;;;41.00;33.20;;;;;;5033464;28;21163;-75
2022/07/20 12:08:30;;;;;;;10.13;5.63;;;40.90;33.20;;;;;;5034861;28;20592;-76
2022/07/20 12:10:57;;;;;;;5.43;4.40;;;41.00;33.10;;;;;;5033771;28;20607;-75
2022/07/20 12:13:23;;;;;;;5.40;4.50;;;40.90;33.00;;;;;;5034292;28;20635;-74
2022/07/20 12:15:56;;;;;;;5.83;4.87;;;40.80;32.90;;;;;;5034231;28;20603;-74
2022/07/20 12:18:31;;;;;;;8.20;5.20;;;40.60;33.20;;;;;;5033874;28;20958;-74
2022/07/20 12:20:59;;;;;;;5.80;4.90;;;40.50;33.00;;;;;;5035962;28;20622;-73
2022/07/20 12:23:26;;;;;;;6.43;5.00;;;40.40;32.90;;;;;;5017545;28;20650;-73
2022/07/20 12:25:52;;;;;;;9.10;4.40;;;40.30;33.00;;;;;;5033109;28;20603;-74
2022/07/20 12:28:32;;;;;;;6.70;4.17;;;40.10;32.80;;;;;;5036601;28;20569;-75
2022/07/20 12:31:11;;;;;;;9.17;4.63;;;39.90;32.80;;;;;;5040393;28;20734;-73
2022/07/20 12:34:01;;;;;;;4.83;4.20;;;39.60;32.90;;;;;;5033437;28;20604;-73
2022/07/20 12:36:38;;;;;;;4.50;4.10;;;39.40;33.10;;;;;;5035652;28;20568;-76
2022/07/20 12:39:10;;;;;;;4.70;3.90;;;39.10;33.40;;;;;;5034813;28;20590;-77
2022/07/20 12:41:37;;;;;;;6.37;4.70;;;39.10;34.10;;;;;;5033175;28;20633;-75
2022/07/20 12:44:28;;;;;;;4.97;4.43;;;38.90;34.00;;;;;;5032530;28;20608;-74
2022/07/20 12:46:56;;;;;;;6.37;4.50;;;38.60;33.90;;;;;;5033171;28;20915;-74